sensor_id;sensor_type;location;lat;lon;timestamp;temperature;humidity
36990;DHT22;22898;52.102;5.776;2023-02-28T00:01:05;9.20;90.20
36990;DHT22;22898;52.102;5.776;2023-02-28T00:03:30;9.30;90.00
36990;DHT22;22898;52.102;5.776;2023-02-28T00:06:01;9.40;89.90
36990;DHT22;22898;52.102;5.776;2023-02-28T00:08:26;9.40;90.00
36990;DHT22;22898;52.102;5.776;2023-02-28T00:10:52;9.30;90.50
36990;DHT22;22898;52.102;5.776;2023-02-28T00:13:18;9.30;90.70
36990;DHT22;22898;52.102;5.776;2023-02-28T00:15:43;9.40;90.40
36990;DHT22;22898;52.102;5.776;2023-02-28T00:18:10;9.40;90.40
36990;DHT22;22898;52.102;5.776;2023-02-28T00:20:37;9.40;90.40
36990;DHT22;22898;52.102;5.776;2023-02-28T00:23:03;9.50;90.30
36990;DHT22;22898;52.102;5.776;2023-02-28T00:25:28;9.60;90.30
36990;DHT22;22898;52.102;5.776;2023-02-28T00:27:54;9.60;90.30
36990;DHT22;22898;52.102;5.776;2023-02-28T00:30:22;9.80;90.30
36990;DHT22;22898;52.102;5.776;2023-02-28T00:32:48;9.90;90.30
36990;DHT22;22898;52.102;5.776;2023-02-28T00:35:14;9.90;90.10
36990;DHT22;22898;52.102;5.776;2023-02-28T00:37:39;9.90;90.10
36990;DHT22;22898;52.102;5.776;2023-02-28T00:40:06;9.80;90.60
36990;DHT22;22898;52.102;5.776;2023-02-28T00:42:33;9.90;90.20
36990;DHT22;22898;52.102;5.776;2023-02-28T00:44:58;9.80;90.40
36990;DHT22;22898;52.102;5.776;2023-02-28T00:47:24;9.80;90.50
36990;DHT22;22898;52.102;5.776;2023-02-28T00:49:49;9.90;90.40
36990;DHT22;22898;52.102;5.776;2023-02-28T00:52:15;10.00;90.20
36990;DHT22;22898;52.102;5.776;2023-02-28T00:54:41;10.00;90.30
36990;DHT22;22898;52.102;5.776;2023-02-28T00:57:06;10.10;90.40
36990;DHT22;22898;52.102;5.776;2023-02-28T00:59:32;10.10;90.40
36990;DHT22;22898;52.102;5.776;2023-02-28T01:01:57;10.10;90.40
36990;DHT22;22898;52.102;5.776;2023-02-28T01:04:23;10.10;90.40
36990;DHT22;22898;52.102;5.776;2023-02-28T01:06:48;10.20;90.30
36990;DHT22;22898;52.102;5.776;2023-02-28T01:09:14;10.20;90.30
36990;DHT22;22898;52.102;5.776;2023-02-28T01:11:39;10.30;90.30
36990;DHT22;22898;52.102;5.776;2023-02-28T01:14:07;10.20;90.30
36990;DHT22;22898;52.102;5.776;2023-02-28T01:16:33;10.20;90.50
36990;DHT22;22898;52.102;5.776;2023-02-28T01:18:59;10.20;90.50
36990;DHT22;22898;52.102;5.776;2023-02-28T01:21:24;10.30;90.40
36990;DHT22;22898;52.102;5.776;2023-02-28T01:23:50;10.30;90.60
36990;DHT22;22898;52.102;5.776;2023-02-28T01:26:19;10.40;90.50
36990;DHT22;22898;52.102;5.776;2023-02-28T01:28:49;10.50;90.30
36990;DHT22;22898;52.102;5.776;2023-02-28T01:31:15;10.50;90.30
36990;DHT22;22898;52.102;5.776;2023-02-28T01:33:41;10.60;90.10
36990;DHT22;22898;52.102;5.776;2023-02-28T01:36:19;10.50;90.20
36990;DHT22;22898;52.102;5.776;2023-02-28T01:38:45;10.60;90.20
36990;DHT22;22898;52.102;5.776;2023-02-28T01:41:32;10.70;90.10
36990;DHT22;22898;52.102;5.776;2023-02-28T01:46:29;10.60;90.20
36990;DHT22;22898;52.102;5.776;2023-02-28T01:49:09;10.60;90.20
36990;DHT22;22898;52.102;5.776;2023-02-28T01:51:45;10.60;90.20
36990;DHT22;22898;52.102;5.776;2023-02-28T01:54:27;10.60;90.30
36990;DHT22;22898;52.102;5.776;2023-02-28T01:57:07;10.60;90.30
36990;DHT22;22898;52.102;5.776;2023-02-28T01:59:58;10.60;90.40
36990;DHT22;22898;52.102;5.776;2023-02-28T02:02:24;10.60;90.30
36990;DHT22;22898;52.102;5.776;2023-02-28T02:05:08;10.60;90.30
36990;DHT22;22898;52.102;5.776;2023-02-28T02:07:39;10.50;90.50
36990;DHT22;22898;52.102;5.776;2023-02-28T02:15:44;10.60;90.30
36990;DHT22;22898;52.102;5.776;2023-02-28T02:18:40;10.60;90.20
36990;DHT22;22898;52.102;5.776;2023-02-28T02:27:08;10.80;90.20
36990;DHT22;22898;52.102;5.776;2023-02-28T02:29:45;10.80;90.10
36990;DHT22;22898;52.102;5.776;2023-02-28T02:32:26;10.60;90.20
36990;DHT22;22898;52.102;5.776;2023-02-28T02:35:01;10.70;90.20
36990;DHT22;22898;52.102;5.776;2023-02-28T02:37:34;10.70;90.10
36990;DHT22;22898;52.102;5.776;2023-02-28T02:40:07;10.70;90.10
36990;DHT22;22898;52.102;5.776;2023-02-28T02:45:18;10.70;90.00
36990;DHT22;22898;52.102;5.776;2023-02-28T02:47:45;10.80;90.00
36990;DHT22;22898;52.102;5.776;2023-02-28T02:50:19;10.80;90.00
36990;DHT22;22898;52.102;5.776;2023-02-28T02:52:52;10.70;90.20
36990;DHT22;22898;52.102;5.776;2023-02-28T02:55:20;10.70;90.20
36990;DHT22;22898;52.102;5.776;2023-02-28T02:57:58;10.80;90.30
36990;DHT22;22898;52.102;5.776;2023-02-28T03:00:31;10.80;90.20
36990;DHT22;22898;52.102;5.776;2023-02-28T03:02:58;10.90;90.10
36990;DHT22;22898;52.102;5.776;2023-02-28T03:05:31;10.90;90.00
36990;DHT22;22898;52.102;5.776;2023-02-28T03:07:57;10.90;90.00
36990;DHT22;22898;52.102;5.776;2023-02-28T03:10:35;10.90;90.20
36990;DHT22;22898;52.102;5.776;2023-02-28T03:19:03;10.90;90.10
36990;DHT22;22898;52.102;5.776;2023-02-28T03:26:54;10.90;89.90
36990;DHT22;22898;52.102;5.776;2023-02-28T03:32:07;10.20;90.00
36990;DHT22;22898;52.102;5.776;2023-02-28T03:34:53;9.80;90.40
36990;DHT22;22898;52.102;5.776;2023-02-28T03:37:22;9.60;90.70
36990;DHT22;22898;52.102;5.776;2023-02-28T03:39:56;9.10;90.10
36990;DHT22;22898;52.102;5.776;2023-02-28T03:42:29;9.00;90.90
36990;DHT22;22898;52.102;5.776;2023-02-28T03:45:02;8.70;91.60
36990;DHT22;22898;52.102;5.776;2023-02-28T03:47:31;8.60;91.10
36990;DHT22;22898;52.102;5.776;2023-02-28T03:50:15;8.70;90.70
36990;DHT22;22898;52.102;5.776;2023-02-28T03:55:49;8.40;91.40
36990;DHT22;22898;52.102;5.776;2023-02-28T03:59:09;8.20;91.00
36990;DHT22;22898;52.102;5.776;2023-02-28T04:01:31;7.90;91.60
36990;DHT22;22898;52.102;5.776;2023-02-28T04:03:59;7.80;92.20
36990;DHT22;22898;52.102;5.776;2023-02-28T04:06:25;8.10;91.70
36990;DHT22;22898;52.102;5.776;2023-02-28T04:08:51;8.30;91.30
36990;DHT22;22898;52.102;5.776;2023-02-28T04:11:22;8.20;91.60
36990;DHT22;22898;52.102;5.776;2023-02-28T04:13:48;8.40;91.70
36990;DHT22;22898;52.102;5.776;2023-02-28T04:16:13;8.50;91.50
36990;DHT22;22898;52.102;5.776;2023-02-28T04:18:39;8.80;91.40
36990;DHT22;22898;52.102;5.776;2023-02-28T04:21:06;9.10;91.00
36990;DHT22;22898;52.102;5.776;2023-02-28T04:23:32;9.30;90.70
36990;DHT22;22898;52.102;5.776;2023-02-28T04:25:58;9.40;90.20
36990;DHT22;22898;52.102;5.776;2023-02-28T04:28:24;9.40;90.50
36990;DHT22;22898;52.102;5.776;2023-02-28T04:31:02;9.50;90.30
36990;DHT22;22898;52.102;5.776;2023-02-28T04:33:28;9.50;90.30
36990;DHT22;22898;52.102;5.776;2023-02-28T04:36:07;9.70;90.10
36990;DHT22;22898;52.102;5.776;2023-02-28T04:38:35;10.00;89.50
36990;DHT22;22898;52.102;5.776;2023-02-28T04:41:01;10.00;89.20
36990;DHT22;22898;52.102;5.776;2023-02-28T04:43:28;9.90;90.00
36990;DHT22;22898;52.102;5.776;2023-02-28T04:45:55;10.20;89.10
36990;DHT22;22898;52.102;5.776;2023-02-28T04:48:23;10.40;88.30
36990;DHT22;22898;52.102;5.776;2023-02-28T04:50:50;10.40;88.00
36990;DHT22;22898;52.102;5.776;2023-02-28T04:53:15;10.50;87.70
36990;DHT22;22898;52.102;5.776;2023-02-28T04:55:41;10.60;86.90
36990;DHT22;22898;52.102;5.776;2023-02-28T04:58:07;10.60;86.60
36990;DHT22;22898;52.102;5.776;2023-02-28T05:00:32;10.50;86.70
36990;DHT22;22898;52.102;5.776;2023-02-28T05:02:58;10.30;87.60
36990;DHT22;22898;52.102;5.776;2023-02-28T05:05:23;9.90;88.70
36990;DHT22;22898;52.102;5.776;2023-02-28T05:07:49;9.80;89.30
36990;DHT22;22898;52.102;5.776;2023-02-28T05:10:14;10.00;88.60
36990;DHT22;22898;52.102;5.776;2023-02-28T05:12:40;10.10;88.80
36990;DHT22;22898;52.102;5.776;2023-02-28T05:15:06;9.70;89.00
36990;DHT22;22898;52.102;5.776;2023-02-28T05:17:31;9.60;90.00
36990;DHT22;22898;52.102;5.776;2023-02-28T05:19:57;9.50;90.10
36990;DHT22;22898;52.102;5.776;2023-02-28T05:22:22;9.60;89.70
36990;DHT22;22898;52.102;5.776;2023-02-28T05:24:48;9.70;89.40
36990;DHT22;22898;52.102;5.776;2023-02-28T05:27:14;9.70;89.60
36990;DHT22;22898;52.102;5.776;2023-02-28T05:29:39;9.70;89.70
36990;DHT22;22898;52.102;5.776;2023-02-28T05:32:11;9.90;89.50
36990;DHT22;22898;52.102;5.776;2023-02-28T05:34:38;10.20;88.60
36990;DHT22;22898;52.102;5.776;2023-02-28T05:37:05;10.40;88.00
36990;DHT22;22898;52.102;5.776;2023-02-28T05:39:30;10.40;87.60
36990;DHT22;22898;52.102;5.776;2023-02-28T05:41:56;10.30;88.00
36990;DHT22;22898;52.102;5.776;2023-02-28T05:44:21;10.40;88.00
36990;DHT22;22898;52.102;5.776;2023-02-28T05:46:47;10.50;87.90
36990;DHT22;22898;52.102;5.776;2023-02-28T05:49:12;10.50;87.70
36990;DHT22;22898;52.102;5.776;2023-02-28T05:51:38;10.30;87.90
36990;DHT22;22898;52.102;5.776;2023-02-28T05:54:05;10.30;88.10
36990;DHT22;22898;52.102;5.776;2023-02-28T05:56:31;10.50;87.40
36990;DHT22;22898;52.102;5.776;2023-02-28T05:58:56;10.60;87.00
36990;DHT22;22898;52.102;5.776;2023-02-28T06:01:38;10.50;86.70
36990;DHT22;22898;52.102;5.776;2023-02-28T06:04:05;10.40;87.70
36990;DHT22;22898;52.102;5.776;2023-02-28T06:06:32;10.60;87.10
36990;DHT22;22898;52.102;5.776;2023-02-28T06:08:59;10.50;87.30
36990;DHT22;22898;52.102;5.776;2023-02-28T06:11:26;10.60;88.50
36990;DHT22;22898;52.102;5.776;2023-02-28T06:13:57;10.60;86.90
36990;DHT22;22898;52.102;5.776;2023-02-28T06:16:24;10.60;86.60
36990;DHT22;22898;52.102;5.776;2023-02-28T06:18:49;10.70;86.60
36990;DHT22;22898;52.102;5.776;2023-02-28T06:21:15;10.60;86.80
36990;DHT22;22898;52.102;5.776;2023-02-28T06:23:41;10.60;87.50
36990;DHT22;22898;52.102;5.776;2023-02-28T06:26:06;10.70;86.30
36990;DHT22;22898;52.102;5.776;2023-02-28T06:28:32;10.70;86.20
36990;DHT22;22898;52.102;5.776;2023-02-28T06:30:57;10.70;86.50
36990;DHT22;22898;52.102;5.776;2023-02-28T06:33:23;10.40;87.30
36990;DHT22;22898;52.102;5.776;2023-02-28T06:35:52;10.50;86.90
36990;DHT22;22898;52.102;5.776;2023-02-28T06:38:18;10.60;86.60
36990;DHT22;22898;52.102;5.776;2023-02-28T06:40:44;10.70;86.60
36990;DHT22;22898;52.102;5.776;2023-02-28T06:43:09;10.70;86.60
36990;DHT22;22898;52.102;5.776;2023-02-28T06:45:41;10.80;86.00
36990;DHT22;22898;52.102;5.776;2023-02-28T06:48:07;10.80;86.00
36990;DHT22;22898;52.102;5.776;2023-02-28T06:50:32;10.90;85.50
36990;DHT22;22898;52.102;5.776;2023-02-28T06:52:58;10.90;85.40
36990;DHT22;22898;52.102;5.776;2023-02-28T06:55:24;10.80;86.40
36990;DHT22;22898;52.102;5.776;2023-02-28T06:57:49;10.80;86.70
36990;DHT22;22898;52.102;5.776;2023-02-28T07:00:16;10.90;86.70
36990;DHT22;22898;52.102;5.776;2023-02-28T07:02:42;10.90;87.00
36990;DHT22;22898;52.102;5.776;2023-02-28T07:05:07;10.90;86.90
36990;DHT22;22898;52.102;5.776;2023-02-28T07:07:33;10.90;87.00
36990;DHT22;22898;52.102;5.776;2023-02-28T07:10:01;10.90;86.70
36990;DHT22;22898;52.102;5.776;2023-02-28T07:12:27;10.80;86.70
36990;DHT22;22898;52.102;5.776;2023-02-28T07:14:52;10.60;88.20
36990;DHT22;22898;52.102;5.776;2023-02-28T07:17:18;10.70;88.30
36990;DHT22;22898;52.102;5.776;2023-02-28T07:19:43;10.80;87.90
36990;DHT22;22898;52.102;5.776;2023-02-28T07:22:09;11.00;87.60
36990;DHT22;22898;52.102;5.776;2023-02-28T07:24:34;11.10;86.90
36990;DHT22;22898;52.102;5.776;2023-02-28T07:27:00;11.30;86.20
36990;DHT22;22898;52.102;5.776;2023-02-28T07:29:26;11.40;85.70
36990;DHT22;22898;52.102;5.776;2023-02-28T07:31:52;11.60;84.80
36990;DHT22;22898;52.102;5.776;2023-02-28T07:34:19;11.50;85.30
36990;DHT22;22898;52.102;5.776;2023-02-28T07:36:45;11.30;86.20
36990;DHT22;22898;52.102;5.776;2023-02-28T07:39:10;11.30;85.90
36990;DHT22;22898;52.102;5.776;2023-02-28T07:41:36;11.30;86.00
36990;DHT22;22898;52.102;5.776;2023-02-28T07:44:11;11.20;86.80
36990;DHT22;22898;52.102;5.776;2023-02-28T07:46:36;11.20;87.20
36990;DHT22;22898;52.102;5.776;2023-02-28T07:49:03;11.10;87.00
36990;DHT22;22898;52.102;5.776;2023-02-28T07:51:32;11.30;86.90
36990;DHT22;22898;52.102;5.776;2023-02-28T07:53:57;11.40;86.70
36990;DHT22;22898;52.102;5.776;2023-02-28T07:56:23;11.60;85.90
36990;DHT22;22898;52.102;5.776;2023-02-28T07:58:49;11.40;85.20
36990;DHT22;22898;52.102;5.776;2023-02-28T08:01:14;11.10;86.00
36990;DHT22;22898;52.102;5.776;2023-02-28T08:03:40;11.10;84.30
36990;DHT22;22898;52.102;5.776;2023-02-28T08:06:07;11.00;84.40
36990;DHT22;22898;52.102;5.776;2023-02-28T08:08:33;10.70;85.90
36990;DHT22;22898;52.102;5.776;2023-02-28T08:11:00;10.30;86.30
36990;DHT22;22898;52.102;5.776;2023-02-28T08:13:27;10.60;85.40
36990;DHT22;22898;52.102;5.776;2023-02-28T08:15:54;10.80;82.30
36990;DHT22;22898;52.102;5.776;2023-02-28T08:18:20;10.80;81.70
36990;DHT22;22898;52.102;5.776;2023-02-28T08:20:45;11.20;80.40
36990;DHT22;22898;52.102;5.776;2023-02-28T08:23:11;11.20;78.00
36990;DHT22;22898;52.102;5.776;2023-02-28T08:25:36;11.30;75.90
36990;DHT22;22898;52.102;5.776;2023-02-28T08:28:02;11.20;76.00
36990;DHT22;22898;52.102;5.776;2023-02-28T08:30:28;10.90;72.30
36990;DHT22;22898;52.102;5.776;2023-02-28T08:32:53;10.40;68.70
36990;DHT22;22898;52.102;5.776;2023-02-28T08:35:20;9.80;73.00
36990;DHT22;22898;52.102;5.776;2023-02-28T08:37:50;8.90;73.00
36990;DHT22;22898;52.102;5.776;2023-02-28T08:40:16;8.50;74.30
36990;DHT22;22898;52.102;5.776;2023-02-28T08:42:45;8.70;74.80
36990;DHT22;22898;52.102;5.776;2023-02-28T08:45:11;8.90;73.30
36990;DHT22;22898;52.102;5.776;2023-02-28T08:47:37;8.90;73.20
36990;DHT22;22898;52.102;5.776;2023-02-28T08:50:03;9.00;72.40
36990;DHT22;22898;52.102;5.776;2023-02-28T08:52:28;8.70;73.80
36990;DHT22;22898;52.102;5.776;2023-02-28T08:54:54;8.90;72.90
36990;DHT22;22898;52.102;5.776;2023-02-28T08:57:20;9.60;70.50
36990;DHT22;22898;52.102;5.776;2023-02-28T08:59:45;9.80;68.80
36990;DHT22;22898;52.102;5.776;2023-02-28T09:02:14;9.70;71.40
36990;DHT22;22898;52.102;5.776;2023-02-28T09:04:40;9.60;71.40
36990;DHT22;22898;52.102;5.776;2023-02-28T09:07:06;9.40;71.40
36990;DHT22;22898;52.102;5.776;2023-02-28T09:09:32;9.30;72.10
36990;DHT22;22898;52.102;5.776;2023-02-28T09:11:57;9.50;72.90
36990;DHT22;22898;52.102;5.776;2023-02-28T09:14:23;9.10;73.20
36990;DHT22;22898;52.102;5.776;2023-02-28T09:16:49;9.00;71.70
36990;DHT22;22898;52.102;5.776;2023-02-28T09:19:14;9.40;69.70
36990;DHT22;22898;52.102;5.776;2023-02-28T09:21:40;9.70;70.20
36990;DHT22;22898;52.102;5.776;2023-02-28T09:24:06;9.70;68.70
36990;DHT22;22898;52.102;5.776;2023-02-28T09:26:32;9.70;68.70
36990;DHT22;22898;52.102;5.776;2023-02-28T09:28:57;9.10;69.60
36990;DHT22;22898;52.102;5.776;2023-02-28T09:31:26;9.20;69.10
36990;DHT22;22898;52.102;5.776;2023-02-28T09:33:54;9.00;67.60
36990;DHT22;22898;52.102;5.776;2023-02-28T09:36:21;8.90;67.00
36990;DHT22;22898;52.102;5.776;2023-02-28T09:38:47;9.30;67.10
36990;DHT22;22898;52.102;5.776;2023-02-28T09:41:22;9.50;66.10
36990;DHT22;22898;52.102;5.776;2023-02-28T09:44:00;9.70;64.50
36990;DHT22;22898;52.102;5.776;2023-02-28T09:46:44;9.90;65.90
36990;DHT22;22898;52.102;5.776;2023-02-28T09:49:16;9.70;66.40
36990;DHT22;22898;52.102;5.776;2023-02-28T09:54:16;9.70;65.80
36990;DHT22;22898;52.102;5.776;2023-02-28T09:56:49;10.10;65.20
36990;DHT22;22898;52.102;5.776;2023-02-28T10:05:05;9.70;65.50
36990;DHT22;22898;52.102;5.776;2023-02-28T10:07:49;9.50;65.50
36990;DHT22;22898;52.102;5.776;2023-02-28T10:10:27;9.90;65.20
36990;DHT22;22898;52.102;5.776;2023-02-28T10:12:56;10.20;63.20
36990;DHT22;22898;52.102;5.776;2023-02-28T10:15:24;9.80;64.70
36990;DHT22;22898;52.102;5.776;2023-02-28T10:17:54;9.30;66.30
36990;DHT22;22898;52.102;5.776;2023-02-28T10:20:23;9.40;65.90
36990;DHT22;22898;52.102;5.776;2023-02-28T10:23:13;9.40;64.70
36990;DHT22;22898;52.102;5.776;2023-02-28T10:25:40;9.60;65.20
36990;DHT22;22898;52.102;5.776;2023-02-28T10:28:14;9.50;64.70
36990;DHT22;22898;52.102;5.776;2023-02-28T10:30:51;9.70;63.20
36990;DHT22;22898;52.102;5.776;2023-02-28T10:33:21;9.50;62.30
36990;DHT22;22898;52.102;5.776;2023-02-28T10:35:47;9.70;63.80
36990;DHT22;22898;52.102;5.776;2023-02-28T10:38:34;9.60;65.20
36990;DHT22;22898;52.102;5.776;2023-02-28T10:41:09;9.80;62.20
36990;DHT22;22898;52.102;5.776;2023-02-28T10:43:37;10.10;61.30
36990;DHT22;22898;52.102;5.776;2023-02-28T10:48:44;9.90;64.20
36990;DHT22;22898;52.102;5.776;2023-02-28T10:51:12;9.90;62.50
36990;DHT22;22898;52.102;5.776;2023-02-28T10:53:49;9.70;63.30
36990;DHT22;22898;52.102;5.776;2023-02-28T10:56:18;9.50;65.60
36990;DHT22;22898;52.102;5.776;2023-02-28T10:59:00;9.60;65.60
36990;DHT22;22898;52.102;5.776;2023-02-28T11:01:40;9.70;65.30
36990;DHT22;22898;52.102;5.776;2023-02-28T11:06:45;10.40;62.90
36990;DHT22;22898;52.102;5.776;2023-02-28T11:09:37;10.80;61.90
36990;DHT22;22898;52.102;5.776;2023-02-28T11:12:17;10.60;62.60
36990;DHT22;22898;52.102;5.776;2023-02-28T11:15:24;10.60;63.60
36990;DHT22;22898;52.102;5.776;2023-02-28T11:17:59;10.80;62.90
36990;DHT22;22898;52.102;5.776;2023-02-28T11:20:29;11.00;63.20
36990;DHT22;22898;52.102;5.776;2023-02-28T11:22:57;9.90;62.60
36990;DHT22;22898;52.102;5.776;2023-02-28T11:25:27;9.70;66.60
36990;DHT22;22898;52.102;5.776;2023-02-28T11:28:01;9.80;66.60
36990;DHT22;22898;52.102;5.776;2023-02-28T11:30:31;10.10;65.50
36990;DHT22;22898;52.102;5.776;2023-02-28T11:32:57;10.30;65.00
36990;DHT22;22898;52.102;5.776;2023-02-28T11:37:55;10.90;61.40
36990;DHT22;22898;52.102;5.776;2023-02-28T11:43:11;10.60;63.70
36990;DHT22;22898;52.102;5.776;2023-02-28T11:46:02;10.80;64.30
36990;DHT22;22898;52.102;5.776;2023-02-28T11:48:44;11.20;62.70
36990;DHT22;22898;52.102;5.776;2023-02-28T11:51:21;11.30;62.60
36990;DHT22;22898;52.102;5.776;2023-02-28T11:54:06;10.70;64.80
36990;DHT22;22898;52.102;5.776;2023-02-28T11:56:46;10.70;64.50
36990;DHT22;22898;52.102;5.776;2023-02-28T12:02:24;11.10;63.80
36990;DHT22;22898;52.102;5.776;2023-02-28T12:10:20;10.80;61.90
36990;DHT22;22898;52.102;5.776;2023-02-28T12:18:38;10.10;63.80
36990;DHT22;22898;52.102;5.776;2023-02-28T12:21:18;10.00;62.70
36990;DHT22;22898;52.102;5.776;2023-02-28T12:26:39;10.30;63.80
36990;DHT22;22898;52.102;5.776;2023-02-28T12:29:23;10.50;62.80
36990;DHT22;22898;52.102;5.776;2023-02-28T12:31:55;10.30;64.00
36990;DHT22;22898;52.102;5.776;2023-02-28T12:34:31;10.50;62.00
36990;DHT22;22898;52.102;5.776;2023-02-28T12:36:58;10.70;62.30
36990;DHT22;22898;52.102;5.776;2023-02-28T12:39:31;11.20;62.50
36990;DHT22;22898;52.102;5.776;2023-02-28T12:42:07;11.20;61.50
36990;DHT22;22898;52.102;5.776;2023-02-28T12:44:46;11.20;59.70
36990;DHT22;22898;52.102;5.776;2023-02-28T12:47:16;11.20;61.30
36990;DHT22;22898;52.102;5.776;2023-02-28T12:50:05;11.00;61.10
36990;DHT22;22898;52.102;5.776;2023-02-28T12:52:43;10.80;62.70
36990;DHT22;22898;52.102;5.776;2023-02-28T12:55:51;11.00;61.40
36990;DHT22;22898;52.102;5.776;2023-02-28T12:58:30;11.00;62.30
36990;DHT22;22898;52.102;5.776;2023-02-28T13:04:14;10.70;61.60
36990;DHT22;22898;52.102;5.776;2023-02-28T13:07:10;11.40;61.40
36990;DHT22;22898;52.102;5.776;2023-02-28T13:09:40;11.90;59.50
36990;DHT22;22898;52.102;5.776;2023-02-28T13:12:14;11.70;58.50
36990;DHT22;22898;52.102;5.776;2023-02-28T13:14:40;11.70;60.40
36990;DHT22;22898;52.102;5.776;2023-02-28T13:24:54;11.00;59.10
36990;DHT22;22898;52.102;5.776;2023-02-28T13:29:51;10.70;60.90
36990;DHT22;22898;52.102;5.776;2023-02-28T13:32:29;10.80;59.70
36990;DHT22;22898;52.102;5.776;2023-02-28T13:39:57;11.40;60.90
36990;DHT22;22898;52.102;5.776;2023-02-28T13:47:40;10.80;59.70
36990;DHT22;22898;52.102;5.776;2023-02-28T13:50:31;10.70;61.50
36990;DHT22;22898;52.102;5.776;2023-02-28T14:06:56;10.90;60.40
36990;DHT22;22898;52.102;5.776;2023-02-28T14:11:56;10.80;59.10
36990;DHT22;22898;52.102;5.776;2023-02-28T14:17:17;11.00;60.40
36990;DHT22;22898;52.102;5.776;2023-02-28T14:19:46;10.80;60.30
36990;DHT22;22898;52.102;5.776;2023-02-28T14:25:09;11.30;60.40
36990;DHT22;22898;52.102;5.776;2023-02-28T14:27:45;11.40;60.70
36990;DHT22;22898;52.102;5.776;2023-02-28T14:33:25;11.70;59.90
36990;DHT22;22898;52.102;5.776;2023-02-28T14:36:07;11.60;59.80
36990;DHT22;22898;52.102;5.776;2023-02-28T14:38:55;11.80;60.00
36990;DHT22;22898;52.102;5.776;2023-02-28T14:41:31;11.90;60.10
36990;DHT22;22898;52.102;5.776;2023-02-28T14:43:59;11.50;60.30
36990;DHT22;22898;52.102;5.776;2023-02-28T14:46:30;10.80;60.50
36990;DHT22;22898;52.102;5.776;2023-02-28T14:48:58;10.80;62.10
36990;DHT22;22898;52.102;5.776;2023-02-28T14:51:24;11.40;61.20
36990;DHT22;22898;52.102;5.776;2023-02-28T14:53:56;11.60;61.50
36990;DHT22;22898;52.102;5.776;2023-02-28T14:56:30;11.50;61.60
36990;DHT22;22898;52.102;5.776;2023-02-28T14:58:58;11.00;61.30
36990;DHT22;22898;52.102;5.776;2023-02-28T15:01:25;11.10;61.60
36990;DHT22;22898;52.102;5.776;2023-02-28T15:04:22;11.10;61.00
36990;DHT22;22898;52.102;5.776;2023-02-28T15:07:10;11.40;60.80
36990;DHT22;22898;52.102;5.776;2023-02-28T15:09:38;11.70;59.90
36990;DHT22;22898;52.102;5.776;2023-02-28T15:12:04;11.30;59.30
36990;DHT22;22898;52.102;5.776;2023-02-28T15:14:29;11.00;61.70
36990;DHT22;22898;52.102;5.776;2023-02-28T15:17:02;11.00;62.00
36990;DHT22;22898;52.102;5.776;2023-02-28T15:19:39;10.90;61.60
36990;DHT22;22898;52.102;5.776;2023-02-28T15:22:12;10.60;62.40
36990;DHT22;22898;52.102;5.776;2023-02-28T15:24:46;11.00;61.10
36990;DHT22;22898;52.102;5.776;2023-02-28T15:27:24;10.90;60.60
36990;DHT22;22898;52.102;5.776;2023-02-28T15:29:55;11.00;60.00
36990;DHT22;22898;52.102;5.776;2023-02-28T15:34:49;11.20;60.10
36990;DHT22;22898;52.102;5.776;2023-02-28T15:37:40;11.10;60.20
36990;DHT22;22898;52.102;5.776;2023-02-28T15:40:25;11.00;60.10
36990;DHT22;22898;52.102;5.776;2023-02-28T15:45:55;11.20;59.60
36990;DHT22;22898;52.102;5.776;2023-02-28T15:48:45;11.30;60.80
36990;DHT22;22898;52.102;5.776;2023-02-28T15:51:20;11.60;59.40
36990;DHT22;22898;52.102;5.776;2023-02-28T15:54:05;12.20;59.30
36990;DHT22;22898;52.102;5.776;2023-02-28T15:56:33;12.20;58.70
36990;DHT22;22898;52.102;5.776;2023-02-28T15:59:07;11.70;57.60
36990;DHT22;22898;52.102;5.776;2023-02-28T16:01:39;11.70;57.70
36990;DHT22;22898;52.102;5.776;2023-02-28T16:04:16;11.80;58.00
36990;DHT22;22898;52.102;5.776;2023-02-28T16:09:23;12.40;58.60
36990;DHT22;22898;52.102;5.776;2023-02-28T16:11:50;12.20;57.90
36990;DHT22;22898;52.102;5.776;2023-02-28T16:14:25;11.70;57.10
36990;DHT22;22898;52.102;5.776;2023-02-28T16:17:04;11.30;57.30
36990;DHT22;22898;52.102;5.776;2023-02-28T16:19:30;11.40;58.00
36990;DHT22;22898;52.102;5.776;2023-02-28T16:21:56;11.20;58.20
36990;DHT22;22898;52.102;5.776;2023-02-28T16:24:22;11.50;58.50
36990;DHT22;22898;52.102;5.776;2023-02-28T16:26:48;12.00;58.20
36990;DHT22;22898;52.102;5.776;2023-02-28T16:29:29;12.30;57.40
36990;DHT22;22898;52.102;5.776;2023-02-28T16:31:56;12.40;57.70
36990;DHT22;22898;52.102;5.776;2023-02-28T16:34:22;12.20;57.30
36990;DHT22;22898;52.102;5.776;2023-02-28T16:36:48;12.20;57.30
36990;DHT22;22898;52.102;5.776;2023-02-28T16:39:14;12.20;57.70
36990;DHT22;22898;52.102;5.776;2023-02-28T16:41:43;12.20;57.90
36990;DHT22;22898;52.102;5.776;2023-02-28T16:44:14;12.30;57.40
36990;DHT22;22898;52.102;5.776;2023-02-28T16:46:44;12.20;58.90
36990;DHT22;22898;52.102;5.776;2023-02-28T16:49:11;12.00;57.60
36990;DHT22;22898;52.102;5.776;2023-02-28T16:51:37;12.10;58.60
36990;DHT22;22898;52.102;5.776;2023-02-28T16:54:03;12.40;58.60
36990;DHT22;22898;52.102;5.776;2023-02-28T16:56:29;12.60;57.50
36990;DHT22;22898;52.102;5.776;2023-02-28T16:58:58;12.70;57.00
36990;DHT22;22898;52.102;5.776;2023-02-28T17:01:24;12.50;57.50
36990;DHT22;22898;52.102;5.776;2023-02-28T17:03:52;12.30;58.10
36990;DHT22;22898;52.102;5.776;2023-02-28T17:06:25;12.30;58.30
36990;DHT22;22898;52.102;5.776;2023-02-28T17:08:53;12.20;58.30
36990;DHT22;22898;52.102;5.776;2023-02-28T17:11:19;12.30;58.70
36990;DHT22;22898;52.102;5.776;2023-02-28T17:13:45;12.40;59.10
36990;DHT22;22898;52.102;5.776;2023-02-28T17:18:46;12.70;59.20
36990;DHT22;22898;52.102;5.776;2023-02-28T17:21:16;12.80;59.30
36990;DHT22;22898;52.102;5.776;2023-02-28T17:23:42;12.90;59.10
36990;DHT22;22898;52.102;5.776;2023-02-28T17:26:12;12.90;59.30
36990;DHT22;22898;52.102;5.776;2023-02-28T17:28:38;12.90;59.60
36990;DHT22;22898;52.102;5.776;2023-02-28T17:31:04;13.00;60.30
36990;DHT22;22898;52.102;5.776;2023-02-28T17:33:29;13.10;59.90
36990;DHT22;22898;52.102;5.776;2023-02-28T17:35:55;13.10;60.10
36990;DHT22;22898;52.102;5.776;2023-02-28T17:38:21;12.90;60.10
36990;DHT22;22898;52.102;5.776;2023-02-28T17:40:48;12.80;60.00
36990;DHT22;22898;52.102;5.776;2023-02-28T17:43:14;12.60;60.20
36990;DHT22;22898;52.102;5.776;2023-02-28T17:45:40;12.50;61.60
36990;DHT22;22898;52.102;5.776;2023-02-28T17:48:08;12.30;62.70
36990;DHT22;22898;52.102;5.776;2023-02-28T17:50:34;12.20;63.20
36990;DHT22;22898;52.102;5.776;2023-02-28T17:53:00;12.00;64.10
36990;DHT22;22898;52.102;5.776;2023-02-28T17:55:25;11.90;64.50
36990;DHT22;22898;52.102;5.776;2023-02-28T17:57:51;11.90;65.40
36990;DHT22;22898;52.102;5.776;2023-02-28T18:00:17;12.00;64.50
36990;DHT22;22898;52.102;5.776;2023-02-28T18:02:43;12.00;64.20